Terminal Aerodrome Forecast
Issued by NWS

Home | Current Version | Previous Version | Text Only | Print | Product List | Glossary Off
Versions: 1 2 3 4 5 6 7 8 9 10 11 12 13 14

000
FTUS43 KMPX 250536
TAFRNH
TAF
KRNH 250536Z 2506/2606 26004KT P6SM SCT250
     FM251700 27014G22KT P6SM FEW040
     FM260100 29004KT P6SM SKC=

USA.gov is the U.S. government's official web portal to all federal, state and local government web resources and services.